Time;durP1;ratioP1;P1;durP2;ratioP2;P2;SDS_P1;SDS_P2;PMS_P1;PMS_P2;Temp;Humidity;BMP_temperature;BMP_pressure;BME280_temperature;BME280_humidity;BME280_pressure;Samples;Min_cycle;Max_cycle;Signal;HPM_P1;HPM_P2
2023/04/28 00:02:21;;;;;;;3.35;2.55;;;5.60;99.90;;;;;;5121334;28;20039;-67
2023/04/28 00:04:53;;;;;;;2.33;1.75;;;5.70;99.90;;;;;;5077090;28;20076;-68
2023/04/28 00:07:25;;;;;;;3.40;2.53;;;5.80;99.90;;;;;;5098314;28;20049;-70
2023/04/28 00:09:59;;;;;;;2.15;1.70;;;5.80;99.90;;;;;;5129810;28;20049;-68
2023/04/28 00:12:31;;;;;;;2.33;1.92;;;5.80;99.90;;;;;;5100204;28;20247;-68
2023/04/28 00:15:07;;;;;;;2.97;1.88;;;5.80;99.90;;;;;;5135482;28;20044;-70
2023/04/28 00:17:38;;;;;;;3.28;2.10;;;5.80;99.90;;;;;;5116789;28;20046;-64
2023/04/28 00:20:14;;;;;;;2.78;1.95;;;5.70;99.90;;;;;;5117279;28;20050;-67
2023/04/28 00:22:49;;;;;;;4.05;1.90;;;5.70;99.90;;;;;;5096934;28;20057;-70
2023/04/28 00:25:23;;;;;;;1.90;1.70;;;5.80;99.90;;;;;;5106130;28;20043;-69
2023/04/28 00:27:58;;;;;;;3.22;2.75;;;5.80;99.90;;;;;;5136596;28;20030;-66
2023/04/28 00:30:31;;;;;;;2.97;1.83;;;5.80;99.90;;;;;;5100932;29;20041;-68
2023/04/28 00:33:07;;;;;;;1.70;1.60;;;5.80;99.90;;;;;;5112781;28;20046;-69
2023/04/28 00:35:47;;;;;;;3.22;2.38;;;5.80;99.90;;;;;;5078121;28;20061;-67
2023/04/28 00:38:24;;;;;;;3.15;1.83;;;5.70;99.90;;;;;;5093169;29;20087;-70
2023/04/28 00:40:58;;;;;;;3.33;2.53;;;5.70;99.90;;;;;;5095136;28;20046;-69
2023/04/28 00:43:43;;;;;;;;;;;5.70;99.90;;;;;;5093237;29;20054;-67
2023/04/28 00:46:31;;;;;;;2.33;2.17;;;5.70;99.90;;;;;;5121114;28;19916;-70
2023/04/28 00:49:11;;;;;;;2.60;2.40;;;5.60;99.90;;;;;;5144806;28;20046;-67
2023/04/28 00:51:42;;;;;;;4.20;2.70;;;5.60;99.90;;;;;;5111703;28;20050;-68
2023/04/28 00:54:21;;;;;;;6.72;3.35;;;5.70;99.90;;;;;;5092826;29;20039;-67
2023/04/28 00:56:57;;;;;;;3.50;2.38;;;5.70;99.90;;;;;;5134400;28;20035;-66
2023/04/28 00:59:29;;;;;;;2.53;2.33;;;5.80;99.90;;;;;;5129783;28;20038;-66
2023/04/28 01:02:02;;;;;;;2.92;2.58;;;5.80;99.90;;;;;;5284781;23;20217;-66
2023/04/28 01:04:36;;;;;;;3.08;2.20;;;5.80;99.90;;;;;;5158056;28;20513;-68
2023/04/28 01:07:08;;;;;;;3.42;2.78;;;5.70;99.90;;;;;;5147186;28;20294;-66
2023/04/28 01:09:39;;;;;;;2.53;2.33;;;5.70;99.90;;;;;;5131368;28;20038;-66
2023/04/28 01:12:10;;;;;;;3.45;2.45;;;5.70;99.90;;;;;;5152081;28;20054;-67
2023/04/28 01:14:44;;;;;;;4.47;2.22;;;5.60;99.90;;;;;;5129918;28;20057;-68
2023/04/28 01:17:17;;;;;;;4.85;2.75;;;5.60;99.90;;;;;;5151281;28;20379;-66
2023/04/28 01:19:52;;;;;;;4.50;2.58;;;5.60;99.90;;;;;;5142696;28;20034;-64
2023/04/28 01:22:28;;;;;;;6.43;2.58;;;5.60;99.90;;;;;;5115487;28;20050;-69
2023/04/28 01:25:03;;;;;;;2.60;2.40;;;5.50;99.90;;;;;;5151316;28;20334;-66
2023/04/28 01:27:38;;;;;;;;;;;5.50;99.90;;;;;;5146406;28;20073;-66
2023/04/28 01:30:11;;;;;;;3.07;2.40;;;5.50;99.90;;;;;;5136573;28;19922;-67
2023/04/28 01:32:43;;;;;;;4.07;3.33;;;5.40;99.90;;;;;;5132779;28;20050;-68
2023/04/28 01:35:20;;;;;;;3.58;3.20;;;5.40;99.90;;;;;;5146391;28;20365;-69
2023/04/28 01:37:51;;;;;;;4.28;3.28;;;5.20;99.90;;;;;;5132988;28;20046;-68
2023/04/28 01:40:29;;;;;;;3.30;2.58;;;5.20;99.90;;;;;;5128423;28;20646;-64
2023/04/28 01:43:00;;;;;;;2.05;1.88;;;5.20;99.90;;;;;;5145818;28;20323;-68
2023/04/28 01:45:32;;;;;;;2.25;2.03;;;5.10;99.90;;;;;;5145764;28;20034;-67
2023/04/28 01:48:05;;;;;;;2.90;2.60;;;5.20;99.90;;;;;;5151504;28;20034;-70
2023/04/28 01:50:39;;;;;;;2.95;2.65;;;5.20;99.90;;;;;;5133892;28;20108;-66
2023/04/28 01:53:12;;;;;;;4.63;3.15;;;5.10;99.90;;;;;;5149814;28;20041;-67
2023/04/28 01:55:44;;;;;;;2.80;2.50;;;5.10;99.90;;;;;;5167401;28;20022;-68
2023/04/28 01:58:15;;;;;;;3.92;3.53;;;5.00;99.90;;;;;;5114444;28;20364;-69
2023/04/28 02:00:54;;;;;;;5.72;2.70;;;5.00;99.90;;;;;;5147869;28;20393;-69
2023/04/28 02:03:33;;;;;;;3.22;2.60;;;5.00;99.90;;;;;;5126538;28;20473;-69
2023/04/28 02:06:10;;;;;;;3.17;2.88;;;5.00;99.90;;;;;;5113173;28;20067;-69
2023/04/28 02:08:52;;;;;;;8.10;2.80;;;4.90;99.90;;;;;;5143338;28;20035;-68
2023/04/28 02:11:30;;;;;;;2.58;2.05;;;5.00;99.90;;;;;;5111446;29;20224;-66
2023/04/28 02:14:02;;;;;;;7.07;2.95;;;4.90;99.90;;;;;;5112116;28;20047;-67
2023/04/28 02:16:33;;;;;;;3.00;2.42;;;4.90;99.90;;;;;;5128556;28;20401;-68
2023/04/28 02:19:05;;;;;;;4.60;2.53;;;4.90;99.90;;;;;;5130203;28;20042;-64
2023/04/28 02:21:36;;;;;;;4.35;3.20;;;4.90;99.90;;;;;;5115276;28;20038;-65
2023/04/28 02:24:08;;;;;;;3.67;2.80;;;4.90;99.90;;;;;;5114127;28;20243;-67
2023/04/28 02:26:42;;;;;;;3.40;2.78;;;4.90;99.90;;;;;;5132621;28;20235;-69
2023/04/28 02:29:15;;;;;;;2.58;2.25;;;4.80;99.90;;;;;;5098542;28;20053;-67
2023/04/28 02:31:46;;;;;;;3.03;2.40;;;4.90;99.90;;;;;;5109877;28;20061;-66
2023/04/28 02:34:18;;;;;;;3.33;2.35;;;4.80;99.90;;;;;;5130346;28;20026;-69
2023/04/28 02:36:50;;;;;;;2.83;2.15;;;4.80;99.90;;;;;;5117309;28;20054;-66
2023/04/28 02:39:24;;;;;;;3.42;2.35;;;4.70;99.90;;;;;;5132242;28;20336;-68
2023/04/28 02:41:56;;;;;;;3.20;2.60;;;4.70;99.90;;;;;;5094633;29;20050;-69
2023/04/28 02:44:27;;;;;;;2.30;1.98;;;4.60;99.90;;;;;;5110371;29;20256;-65
2023/04/28 02:47:00;;;;;;;4.28;3.40;;;4.60;99.90;;;;;;5107814;28;20047;-69
2023/04/28 02:49:34;;;;;;;3.38;2.17;;;4.60;99.90;;;;;;5126585;28;20061;-67
2023/04/28 02:52:10;;;;;;;2.80;2.57;;;4.60;99.90;;;;;;5122388;28;20713;-66
2023/04/28 02:54:48;;;;;;;3.67;2.70;;;4.50;99.90;;;;;;5115263;28;20037;-69
2023/04/28 02:57:20;;;;;;;6.13;3.45;;;4.50;99.90;;;;;;5114176;28;20352;-65
2023/04/28 03:00:01;;;;;;;2.63;2.42;;;4.50;99.90;;;;;;5114254;28;20043;-68
2023/04/28 03:02:33;;;;;;;3.67;2.75;;;4.50;99.90;;;;;;5097108;28;20274;-66
2023/04/28 03:05:18;;;;;;;3.08;2.72;;;4.40;99.90;;;;;;5131036;28;20087;-66
2023/04/28 03:07:49;;;;;;;4.28;2.60;;;4.30;99.90;;;;;;5149783;28;20367;-67
2023/04/28 03:10:26;;;;;;;5.22;3.05;;;4.20;99.90;;;;;;5117759;28;20045;-67
2023/04/28 03:13:00;;;;;;;3.47;3.05;;;4.10;99.90;;;;;;5132787;28;20445;-65
2023/04/28 03:15:32;;;;;;;;;;;4.10;99.90;;;;;;5131810;28;20050;-66
2023/04/28 03:18:06;;;;;;;3.35;2.58;;;4.10;99.90;;;;;;5149029;28;20057;-66
2023/04/28 03:20:45;;;;;;;3.70;2.63;;;4.10;99.90;;;;;;5134215;28;20034;-67
2023/04/28 03:23:17;;;;;;;3.95;2.78;;;3.90;99.90;;;;;;5149240;28;20239;-69
2023/04/28 03:25:51;;;;;;;2.63;2.42;;;3.90;99.90;;;;;;5133695;28;20076;-68
2023/04/28 03:28:25;;;;;;;5.63;3.75;;;3.80;99.90;;;;;;5149878;28;20045;-68
2023/04/28 03:31:00;;;;;;;3.95;3.38;;;3.70;99.90;;;;;;5129873;28;20046;-66
2023/04/28 03:33:31;;;;;;;3.30;2.55;;;3.70;99.90;;;;;;5132766;28;20223;-67
2023/04/28 03:36:06;;;;;;;5.80;3.90;;;3.70;99.90;;;;;;5149844;28;20426;-69
2023/04/28 03:38:43;;;;;;;5.13;3.50;;;3.70;99.90;;;;;;5117371;28;20204;-68
2023/04/28 03:41:21;;;;;;;4.97;3.22;;;3.80;99.90;;;;;;5129001;28;20061;-65
2023/04/28 03:43:55;;;;;;;4.00;3.22;;;3.80;99.90;;;;;;5129276;28;20050;-68
2023/04/28 03:46:30;;;;;;;4.85;3.15;;;3.90;99.90;;;;;;5114355;28;20042;-67
2023/04/28 03:49:01;;;;;;;5.35;2.90;;;3.90;99.90;;;;;;5150505;28;20034;-69
2023/04/28 03:51:38;;;;;;;3.83;3.17;;;4.00;99.90;;;;;;5134021;28;20053;-69
2023/04/28 03:54:09;;;;;;;4.10;3.10;;;4.10;99.90;;;;;;5133957;28;20287;-66
2023/04/28 03:56:44;;;;;;;11.90;3.08;;;4.10;99.90;;;;;;5151174;28;20022;-68
2023/04/28 03:59:19;;;;;;;4.60;3.25;;;4.10;99.90;;;;;;5117415;28;20034;-69
2023/04/28 04:01:56;;;;;;;3.70;2.85;;;4.20;99.90;;;;;;5113766;28;20042;-68
2023/04/28 04:04:30;;;;;;;3.33;2.90;;;4.20;99.90;;;;;;5155704;28;20150;-66
2023/04/28 04:07:07;;;;;;;5.38;2.70;;;4.30;99.90;;;;;;5129427;28;20051;-71
2023/04/28 04:09:39;;;;;;;6.65;3.67;;;4.40;99.90;;;;;;5129237;28;20336;-69
2023/04/28 04:12:18;;;;;;;5.40;3.88;;;4.50;99.90;;;;;;5109414;28;20237;-68
2023/04/28 04:14:54;;;;;;;3.80;2.92;;;4.60;99.90;;;;;;5103413;28;20047;-67
2023/04/28 04:17:26;;;;;;;3.22;2.90;;;4.60;99.90;;;;;;5107785;28;20045;-67
2023/04/28 04:20:02;;;;;;;6.47;3.80;;;4.70;99.90;;;;;;5137266;28;20054;-69
2023/04/28 04:22:40;;;;;;;2.67;2.33;;;4.80;99.90;;;;;;5112300;28;20046;-67
2023/04/28 04:25:19;;;;;;;3.53;2.70;;;4.90;99.90;;;;;;5114640;28;20049;-66
2023/04/28 04:27:53;;;;;;;3.70;2.90;;;5.00;99.90;;;;;;5130753;28;20034;-70
2023/04/28 04:30:27;;;;;;;4.63;3.38;;;5.00;99.90;;;;;;5125677;28;20164;-68
2023/04/28 04:33:02;;;;;;;3.58;2.97;;;5.00;99.90;;;;;;5138181;28;20045;-68
2023/04/28 04:35:40;;;;;;;3.17;2.67;;;5.20;99.90;;;;;;5131625;28;20047;-67
2023/04/28 04:38:14;;;;;;;5.80;3.63;;;5.20;99.90;;;;;;5129037;28;20045;-68
2023/04/28 04:40:48;;;;;;;4.80;3.17;;;5.40;99.90;;;;;;5097289;28;20267;-69
2023/04/28 04:43:22;;;;;;;6.43;2.95;;;5.60;99.90;;;;;;5118537;28;20046;-69
2023/04/28 04:45:56;;;;;;;8.95;3.35;;;5.90;99.90;;;;;;5147519;28;20042;-69
2023/04/28 04:48:31;;;;;;;5.25;3.22;;;6.10;99.90;;;;;;5160371;28;20050;-67
2023/04/28 04:51:03;;;;;;;4.53;3.20;;;6.20;99.90;;;;;;5100036;28;20536;-67
2023/04/28 04:53:37;;;;;;;3.00;2.65;;;6.40;99.90;;;;;;5091837;28;20050;-67
2023/04/28 04:56:14;;;;;;;3.90;3.55;;;6.70;99.90;;;;;;5117472;28;20051;-66
2023/04/28 04:58:46;;;;;;;5.25;3.35;;;7.00;99.90;;;;;;5124068;28;20420;-70
2023/04/28 05:01:20;;;;;;;4.82;3.30;;;7.10;99.90;;;;;;5095291;28;20084;-68
2023/04/28 05:03:51;;;;;;;4.80;3.30;;;7.30;99.90;;;;;;5133550;28;20053;-70
2023/04/28 05:06:23;;;;;;;5.78;3.67;;;7.60;99.90;;;;;;5099267;28;20093;-68
2023/04/28 05:08:58;;;;;;;5.72;3.65;;;7.70;99.90;;;;;;5124196;28;20043;-69
2023/04/28 05:11:32;;;;;;;4.20;2.97;;;7.80;99.90;;;;;;5128757;28;20031;-69
2023/04/28 05:14:06;;;;;;;4.60;3.55;;;7.90;99.90;;;;;;5131636;28;20039;-68
2023/04/28 05:16:43;;;;;;;4.35;3.42;;;8.00;99.90;;;;;;5114842;28;20052;-68
2023/04/28 05:19:22;;;;;;;6.03;3.40;;;8.00;99.90;;;;;;5107667;28;20065;-67
2023/04/28 05:21:57;;;;;;;6.03;3.58;;;8.00;99.90;;;;;;5124451;28;20046;-67
2023/04/28 05:24:32;;;;;;;5.90;3.15;;;8.10;99.90;;;;;;5134029;28;20058;-67
2023/04/28 05:27:07;;;;;;;5.55;3.25;;;8.20;99.90;;;;;;5122854;28;20047;-70
2023/04/28 05:29:41;;;;;;;5.88;3.83;;;8.30;99.90;;;;;;5134230;28;20035;-67
2023/04/28 05:32:18;;;;;;;3.93;3.27;;;8.60;99.90;;;;;;5111264;28;20354;-67
2023/04/28 05:34:57;;;;;;;3.55;2.90;;;8.70;99.90;;;;;;5102275;28;20296;-67
2023/04/28 05:37:28;;;;;;;4.38;3.35;;;9.00;99.90;;;;;;5119854;28;20057;-69
2023/04/28 05:40:07;;;;;;;4.63;2.67;;;9.20;99.90;;;;;;5131882;28;20055;-68
2023/04/28 05:42:39;;;;;;;3.75;2.83;;;9.40;99.90;;;;;;5095750;28;20055;-69
2023/04/28 05:45:11;;;;;;;6.60;4.13;;;9.40;99.90;;;;;;5125259;28;20460;-70
2023/04/28 05:47:45;;;;;;;4.43;3.20;;;9.60;99.90;;;;;;5123303;28;20354;-66
2023/04/28 05:50:17;;;;;;;;;;;10.10;99.90;;;;;;5128610;28;20056;-67
2023/04/28 05:52:54;;;;;;;3.45;3.15;;;10.30;99.90;;;;;;5148169;28;19910;-71
2023/04/28 05:55:27;;;;;;;4.95;3.80;;;10.60;99.90;;;;;;5140442;28;20038;-68
2023/04/28 05:58:04;;;;;;;3.60;2.92;;;10.90;99.90;;;;;;5117954;28;20069;-68
2023/04/28 06:00:38;;;;;;;3.90;3.47;;;10.80;99.90;;;;;;5143724;28;20053;-69
2023/04/28 06:03:17;;;;;;;4.78;3.95;;;11.00;99.90;;;;;;5149911;28;20046;-68
2023/04/28 06:05:52;;;;;;;4.05;3.42;;;11.20;99.90;;;;;;5110533;28;20050;-67
2023/04/28 06:08:24;;;;;;;4.22;3.28;;;11.30;99.90;;;;;;5112674;28;20038;-69
2023/04/28 06:11:01;;;;;;;3.33;2.67;;;11.40;99.90;;;;;;5100588;28;20048;-71
2023/04/28 06:13:38;;;;;;;3.05;2.75;;;11.50;99.90;;;;;;5113747;28;20051;-69
2023/04/28 06:16:09;;;;;;;4.53;3.97;;;11.60;99.90;;;;;;5126034;28;20216;-66
2023/04/28 06:18:43;;;;;;;3.63;3.13;;;11.80;99.90;;;;;;5131614;28;20390;-68
2023/04/28 06:21:27;;;;;;;4.28;3.17;;;11.90;99.90;;;;;;5118446;28;20343;-66
2023/04/28 06:24:00;;;;;;;4.57;3.25;;;12.10;99.90;;;;;;5113880;28;20034;-69
2023/04/28 06:26:32;;;;;;;5.35;3.80;;;12.40;99.90;;;;;;5100990;28;20054;-68
2023/04/28 06:29:04;;;;;;;4.32;3.10;;;12.60;99.90;;;;;;5100687;28;20051;-69
2023/04/28 06:31:42;;;;;;;3.17;2.70;;;12.70;99.90;;;;;;5109162;28;20038;-66
2023/04/28 06:34:14;;;;;;;3.22;2.83;;;12.90;99.90;;;;;;5130955;28;20034;-67
2023/04/28 06:36:49;;;;;;;3.58;2.72;;;13.20;99.90;;;;;;5135174;28;20126;-67
2023/04/28 06:39:24;;;;;;;3.47;3.03;;;13.40;99.90;;;;;;5110252;28;20050;-67
2023/04/28 06:41:56;;;;;;;;;;;13.40;99.90;;;;;;5125647;28;20049;-66
2023/04/28 06:44:28;;;;;;;6.50;3.28;;;12.60;99.90;;;;;;5111039;28;19925;-69
2023/04/28 06:47:04;;;;;;;5.32;3.88;;;12.40;99.90;;;;;;5133328;28;20627;-65
2023/04/28 06:49:46;;;;;;;3.83;3.05;;;12.50;99.90;;;;;;5139842;28;20323;-69
2023/04/28 06:52:21;;;;;;;4.35;3.72;;;12.60;99.90;;;;;;5129845;28;20052;-67
2023/04/28 06:54:55;;;;;;;7.90;3.92;;;12.90;99.90;;;;;;5113229;28;20068;-69
2023/04/28 06:57:29;;;;;;;3.58;3.25;;;12.70;99.90;;;;;;5123135;28;20322;-68
2023/04/28 07:00:04;;;;;;;3.40;3.10;;;12.90;99.90;;;;;;5117798;28;20038;-68
2023/04/28 07:02:41;;;;;;;3.38;2.92;;;13.40;99.90;;;;;;5129254;28;20219;-67
2023/04/28 07:05:13;;;;;;;6.70;3.60;;;13.70;99.90;;;;;;5084264;28;20047;-69
2023/04/28 07:07:51;;;;;;;4.32;3.40;;;14.00;99.90;;;;;;5124060;28;20050;-69
2023/04/28 07:10:22;;;;;;;5.00;3.25;;;14.10;99.90;;;;;;5140054;28;20165;-66
2023/04/28 07:12:59;;;;;;;4.78;3.75;;;14.10;99.90;;;;;;5144141;28;20223;-68
2023/04/28 07:15:34;;;;;;;3.75;3.28;;;14.20;99.90;;;;;;5116496;28;20039;-70
2023/04/28 07:18:05;;;;;;;;;;;14.40;99.90;;;;;;5107086;28;20378;-67
2023/04/28 07:20:40;;;;;;;4.60;3.42;;;14.60;99.90;;;;;;5144317;28;19921;-69
2023/04/28 07:23:11;;;;;;;;;;;14.90;99.90;;;;;;5130713;28;20382;-69
2023/04/28 07:25:51;;;;;;;2.92;2.58;;;15.10;99.90;;;;;;5118701;28;19929;-69
2023/04/28 07:28:30;;;;;;;3.70;2.50;;;15.20;99.90;;;;;;5144822;28;20050;-66
2023/04/28 07:31:01;;;;;;;3.30;2.33;;;15.50;99.90;;;;;;5097737;28;20043;-67
2023/04/28 07:33:38;;;;;;;4.60;2.35;;;15.60;99.90;;;;;;5142529;28;20041;-68
2023/04/28 07:36:10;;;;;;;3.35;3.05;;;15.50;99.90;;;;;;5116384;28;20039;-68
2023/04/28 07:38:44;;;;;;;6.38;2.75;;;15.60;99.90;;;;;;5130327;28;20346;-69
2023/04/28 07:41:18;;;;;;;5.60;2.83;;;15.80;99.90;;;;;;5100504;28;20045;-67
2023/04/28 07:43:49;;;;;;;3.77;3.47;;;15.70;99.90;;;;;;5109626;28;20214;-67
2023/04/28 07:46:31;;;;;;;3.10;2.80;;;15.70;99.90;;;;;;5113122;28;20038;-68
2023/04/28 07:49:03;;;;;;;2.88;2.42;;;15.60;99.90;;;;;;5127849;28;20031;-68
2023/04/28 07:51:42;;;;;;;3.60;2.97;;;15.70;99.90;;;;;;5106929;28;20034;-70
2023/04/28 07:54:14;;;;;;;3.40;2.70;;;15.80;99.90;;;;;;5119055;28;20030;-69
2023/04/28 07:56:45;;;;;;;3.75;2.47;;;16.00;99.90;;;;;;5125336;28;20046;-66
2023/04/28 07:59:25;;;;;;;5.22;3.13;;;16.20;99.90;;;;;;5109657;29;20061;-68
2023/04/28 08:01:58;;;;;;;7.50;3.65;;;16.00;99.90;;;;;;5108115;28;20045;-69
2023/04/28 08:04:32;;;;;;;4.40;3.38;;;15.70;99.90;;;;;;5125530;28;20063;-68
2023/04/28 08:07:13;;;;;;;3.70;2.83;;;15.70;99.90;;;;;;5132979;28;20113;-71
2023/04/28 08:09:51;;;;;;;3.03;2.63;;;16.10;99.90;;;;;;5122119;28;20404;-69
2023/04/28 08:12:22;;;;;;;4.18;2.53;;;16.70;99.90;;;;;;5130097;28;20044;-69
2023/04/28 08:14:56;;;;;;;4.35;2.67;;;17.50;99.90;;;;;;5099137;28;20035;-69
2023/04/28 08:17:31;;;;;;;3.00;2.63;;;17.80;99.90;;;;;;5135271;28;20220;-67
2023/04/28 08:20:09;;;;;;;2.78;2.17;;;17.60;99.90;;;;;;5135018;28;20239;-70
2023/04/28 08:22:43;;;;;;;3.72;2.72;;;17.50;99.90;;;;;;5111200;28;20064;-69
2023/04/28 08:25:15;;;;;;;5.28;2.97;;;17.60;99.90;;;;;;5121359;28;20325;-70
2023/04/28 08:27:54;;;;;;;2.13;1.98;;;17.20;99.90;;;;;;5139973;28;20058;-69
2023/04/28 08:30:28;;;;;;;2.92;2.33;;;17.20;99.90;;;;;;5111146;28;20057;-70
2023/04/28 08:33:00;;;;;;;5.65;2.15;;;17.40;99.90;;;;;;5125780;28;20067;-68
2023/04/28 08:35:34;;;;;;;2.20;2.00;;;18.20;99.90;;;;;;5123035;28;20176;-65
2023/04/28 08:38:12;;;;;;;2.90;2.22;;;18.50;99.90;;;;;;5110190;28;20044;-66
2023/04/28 08:40:47;;;;;;;2.20;2.00;;;18.80;99.90;;;;;;5117459;28;20064;-66
2023/04/28 08:43:23;;;;;;;2.15;1.95;;;18.80;99.90;;;;;;5140788;28;20045;-69
2023/04/28 08:45:59;;;;;;;3.28;2.03;;;18.10;99.90;;;;;;5140329;28;20044;-67
2023/04/28 08:48:43;;;;;;;3.63;1.92;;;18.20;99.90;;;;;;5111942;28;20305;-70
2023/04/28 08:51:32;;;;;;;7.88;2.58;;;18.50;99.90;;;;;;5141140;28;20042;-66
2023/04/28 08:54:12;;;;;;;2.33;2.13;;;18.40;99.90;;;;;;5134795;28;20388;-68
2023/04/28 08:56:44;;;;;;;2.00;1.80;;;18.60;99.90;;;;;;5119830;28;20058;-68
2023/04/28 08:59:18;;;;;;;2.30;1.73;;;19.10;99.90;;;;;;5131872;28;20035;-69
2023/04/28 09:01:52;;;;;;;3.47;2.00;;;18.80;99.90;;;;;;5112955;28;20303;-66
2023/04/28 09:04:27;;;;;;;4.55;1.98;;;19.00;99.90;;;;;;5105394;28;20051;-67
2023/04/28 09:06:58;;;;;;;4.20;2.40;;;19.20;99.90;;;;;;5111955;28;20251;-70
2023/04/28 09:09:34;;;;;;;2.97;2.05;;;19.20;99.90;;;;;;5128177;28;20038;-67
2023/04/28 09:12:06;;;;;;;2.47;2.10;;;19.00;99.90;;;;;;5093483;28;20039;-67
2023/04/28 09:14:38;;;;;;;4.22;3.05;;;19.10;99.90;;;;;;5124869;28;20197;-68
2023/04/28 09:17:12;;;;;;;2.60;1.90;;;19.20;99.90;;;;;;5092545;29;20336;-67
2023/04/28 09:19:43;;;;;;;2.47;2.00;;;19.30;99.90;;;;;;5111484;28;20046;-68
2023/04/28 09:22:17;;;;;;;2.65;2.30;;;19.50;99.90;;;;;;5124968;28;20043;-69
2023/04/28 09:24:54;;;;;;;2.00;1.67;;;20.00;99.90;;;;;;5147450;28;20298;-69
2023/04/28 09:27:27;;;;;;;2.50;1.83;;;20.60;99.90;;;;;;5131858;28;20042;-68
2023/04/28 09:29:59;;;;;;;2.38;2.10;;;20.70;99.90;;;;;;5129749;28;20050;-69
2023/04/28 09:32:32;;;;;;;2.40;2.20;;;20.60;99.90;;;;;;5147619;28;20299;-69
2023/04/28 09:35:07;;;;;;;2.17;1.90;;;20.40;99.90;;;;;;5131115;28;20038;-69
2023/04/28 09:37:42;;;;;;;2.10;1.90;;;20.30;99.90;;;;;;5131954;28;20038;-70
2023/04/28 09:40:13;;;;;;;2.22;1.92;;;20.30;99.90;;;;;;5143082;28;20043;-67
2023/04/28 09:42:46;;;;;;;2.60;2.20;;;20.20;99.90;;;;;;5128601;28;20038;-68
2023/04/28 09:45:21;;;;;;;2.10;1.73;;;20.00;99.90;;;;;;5142169;28;20515;-71
2023/04/28 09:47:55;;;;;;;;;;;20.40;99.90;;;;;;5112812;28;20049;-67
2023/04/28 09:50:39;;;;;;;2.13;1.92;;;20.50;99.90;;;;;;5128206;28;20152;-66
2023/04/28 09:53:13;;;;;;;1.70;1.60;;;21.00;99.90;;;;;;5129095;28;20039;-69
2023/04/28 09:55:46;;;;;;;3.20;1.75;;;21.70;99.90;;;;;;5143950;28;20038;-70
2023/04/28 09:58:23;;;;;;;2.20;1.70;;;21.50;99.90;;;;;;5138937;28;20049;-68
2023/04/28 10:00:57;;;;;;;3.55;2.08;;;21.10;99.90;;;;;;5132810;28;20519;-67
2023/04/28 10:03:32;;;;;;;2.13;1.80;;;20.80;99.90;;;;;;5153091;28;20034;-71
2023/04/28 10:06:05;;;;;;;2.15;2.00;;;20.90;99.90;;;;;;5125335;28;20052;-70
2023/04/28 10:08:38;;;;;;;2.17;1.67;;;20.30;99.90;;;;;;5134415;28;20053;-68
2023/04/28 10:11:10;;;;;;;3.50;1.85;;;20.30;99.90;;;;;;5148459;28;20046;-67
2023/04/28 10:13:45;;;;;;;3.55;2.47;;;20.50;99.90;;;;;;5132118;28;20047;-70
2023/04/28 10:16:17;;;;;;;;;;;20.70;99.90;;;;;;5165870;28;20053;-69
2023/04/28 10:18:52;;;;;;;4.05;1.92;;;20.80;99.90;;;;;;5149747;28;19936;-69
2023/04/28 10:21:28;;;;;;;3.15;2.40;;;20.70;99.90;;;;;;5165027;28;20050;-70
2023/04/28 10:24:17;;;;;;;4.90;1.90;;;21.40;99.90;;;;;;5115454;28;20042;-69
2023/04/28 10:27:08;;;;;;;2.03;1.92;;;22.40;99.90;;;;;;5141467;28;20038;-69
2023/04/28 10:29:40;;;;;;;2.00;1.88;;;22.20;99.90;;;;;;5167420;28;20056;-69
2023/04/28 10:32:21;;;;;;;1.45;1.35;;;21.90;99.90;;;;;;5133658;28;20042;-69
2023/04/28 10:35:31;;;;;;;1.42;1.33;;;21.20;99.90;;;;;;5148431;28;20040;-68
2023/04/28 10:38:16;;;;;;;3.55;2.08;;;21.10;99.90;;;;;;5139987;28;20207;-70
2023/04/28 10:40:53;;;;;;;4.25;1.70;;;21.10;99.90;;;;;;5130988;28;20056;-67
2023/04/28 10:43:40;;;;;;;3.03;2.30;;;21.40;99.90;;;;;;5149580;28;20046;-68
2023/04/28 10:46:12;;;;;;;1.88;1.65;;;21.80;99.90;;;;;;5131537;28;20054;-70
2023/04/28 10:48:46;;;;;;;2.30;1.90;;;21.80;99.90;;;;;;5151559;28;20037;-69
2023/04/28 10:51:17;;;;;;;1.52;1.42;;;22.20;99.90;;;;;;5151687;28;20046;-69
2023/04/28 10:53:50;;;;;;;1.55;1.42;;;22.40;99.90;;;;;;5152459;28;20578;-70
2023/04/28 10:56:26;;;;;;;1.55;1.45;;;23.00;99.90;;;;;;5150347;28;20442;-70
2023/04/28 10:59:24;;;;;;;1.45;1.35;;;23.70;99.90;;;;;;5135197;28;20050;-67
2023/04/28 11:02:34;;;;;;;2.03;1.58;;;23.40;99.90;;;;;;5131357;28;20053;-66
2023/04/28 11:05:17;;;;;;;1.90;1.70;;;23.30;99.90;;;;;;5141753;28;20072;-67
2023/04/28 11:08:27;;;;;;;2.78;1.90;;;22.70;99.90;;;;;;5147675;28;20236;-71
2023/04/28 11:11:21;;;;;;;2.28;1.85;;;22.10;99.90;;;;;;5152023;28;20052;-67
2023/04/28 11:14:21;;;;;;;1.70;1.60;;;22.00;99.90;;;;;;5160058;28;20046;-66
2023/04/28 11:17:01;;;;;;;2.58;1.92;;;21.40;99.90;;;;;;5139622;28;20065;-67
2023/04/28 11:19:42;;;;;;;2.75;1.80;;;20.80;99.90;;;;;;5149959;28;20046;-69
2023/04/28 11:22:19;;;;;;;1.73;1.60;;;21.10;99.90;;;;;;5133716;28;20559;-67
2023/04/28 11:24:59;;;;;;;2.10;1.60;;;21.30;99.90;;;;;;5150954;28;20042;-67
2023/04/28 11:27:38;;;;;;;3.63;1.83;;;21.30;99.90;;;;;;5149202;28;20040;-68
2023/04/28 11:30:25;;;;;;;2.63;1.95;;;21.10;99.90;;;;;;5129864;28;20060;-69
2023/04/28 11:32:56;;;;;;;3.90;1.92;;;20.90;99.90;;;;;;5163595;28;20486;-66
2023/04/28 11:35:42;;;;;;;2.33;1.58;;;21.20;99.90;;;;;;5148391;28;20049;-69
2023/04/28 11:38:19;;;;;;;1.70;1.52;;;22.00;99.90;;;;;;5107323;28;20494;-70
2023/04/28 11:40:58;;;;;;;2.00;1.83;;;22.80;99.90;;;;;;5133278;28;20449;-70
2023/04/28 11:43:30;;;;;;;1.75;1.48;;;23.80;99.90;;;;;;5143461;28;20051;-67
2023/04/28 11:46:02;;;;;;;1.98;1.25;;;24.30;99.90;;;;;;5145679;28;20042;-67
2023/04/28 11:48:42;;;;;;;2.97;1.73;;;24.20;99.90;;;;;;5163907;28;20054;-68
2023/04/28 11:51:44;;;;;;;2.00;1.77;;;24.40;99.90;;;;;;5146121;28;20362;-68
2023/04/28 11:54:35;;;;;;;1.73;1.63;;;23.30;99.90;;;;;;5141694;28;20030;-68
2023/04/28 11:57:24;;;;;;;3.92;2.38;;;23.10;99.90;;;;;;5148178;28;20052;-68
2023/04/28 12:00:20;;;;;;;1.90;1.70;;;22.20;99.90;;;;;;5150982;28;20040;-67
2023/04/28 12:02:52;;;;;;;3.45;1.92;;;22.20;99.90;;;;;;5137857;28;20580;-68
2023/04/28 12:05:23;;;;;;;1.90;1.50;;;20.70;99.90;;;;;;5134614;28;20358;-68
2023/04/28 12:07:55;;;;;;;1.50;1.40;;;20.70;99.90;;;;;;5150701;28;20044;-68
2023/04/28 12:10:32;;;;;;;1.70;1.60;;;20.20;99.90;;;;;;5136086;28;21553;-69
2023/04/28 12:13:19;;;;;;;2.30;1.80;;;20.10;99.90;;;;;;5122590;28;20054;-69
2023/04/28 12:16:00;;;;;;;2.53;2.00;;;19.90;99.90;;;;;;5133982;28;20034;-69
2023/04/28 12:18:36;;;;;;;2.42;1.65;;;19.60;99.90;;;;;;5162923;28;20053;-67
2023/04/28 12:21:20;;;;;;;2.00;1.90;;;19.80;99.90;;;;;;5106584;28;20064;-68
2023/04/28 12:23:52;;;;;;;3.00;1.77;;;19.90;99.90;;;;;;5136278;28;20319;-69
2023/04/28 12:26:30;;;;;;;2.33;2.00;;;19.30;99.90;;;;;;5135268;28;20028;-69
2023/04/28 12:29:12;;;;;;;2.22;1.50;;;19.20;99.90;;;;;;5145476;28;20034;-69
2023/04/28 12:31:49;;;;;;;3.05;1.85;;;19.20;99.90;;;;;;5116304;28;20479;-70
2023/04/28 12:34:21;;;;;;;2.33;1.50;;;18.90;99.90;;;;;;5144640;28;20038;-65
2023/04/28 12:36:57;;;;;;;2.95;1.65;;;18.60;99.90;;;;;;5143585;28;20030;-70
2023/04/28 12:39:33;;;;;;;2.85;2.10;;;18.40;99.90;;;;;;5146559;28;20278;-68
2023/04/28 12:42:05;;;;;;;2.50;2.30;;;18.50;99.90;;;;;;5153753;28;20048;-69
2023/04/28 12:44:40;;;;;;;3.83;2.00;;;18.50;99.90;;;;;;5130077;28;20424;-64
2023/04/28 12:47:12;;;;;;;2.15;1.90;;;18.30;99.90;;;;;;5131885;28;20096;-69
2023/04/28 12:49:43;;;;;;;1.50;1.40;;;18.20;99.90;;;;;;5148526;28;20505;-68
2023/04/28 12:52:16;;;;;;;3.33;1.80;;;18.00;99.90;;;;;;5129588;28;20049;-69
2023/04/28 12:54:48;;;;;;;2.20;2.00;;;17.80;99.90;;;;;;5133017;28;20038;-71
2023/04/28 12:57:22;;;;;;;2.13;1.88;;;18.00;99.90;;;;;;5150200;28;20044;-69
2023/04/28 12:59:56;;;;;;;1.90;1.80;;;18.10;99.90;;;;;;5148901;28;20034;-67
2023/04/28 13:02:30;;;;;;;2.53;1.63;;;18.40;99.90;;;;;;5150962;28;20037;-69
2023/04/28 13:05:04;;;;;;;2.00;1.80;;;18.60;99.90;;;;;;5141812;28;20053;-68
2023/04/28 13:07:44;;;;;;;1.83;1.70;;;18.60;99.90;;;;;;5116611;28;20223;-69
2023/04/28 13:10:22;;;;;;;2.10;1.90;;;18.30;99.90;;;;;;5116794;28;20053;-68
2023/04/28 13:12:54;;;;;;;2.95;2.15;;;17.90;99.90;;;;;;5112328;28;20050;-67
2023/04/28 13:15:36;;;;;;;1.75;1.65;;;17.60;99.90;;;;;;5134584;28;20042;-67
2023/04/28 13:18:09;;;;;;;1.60;1.50;;;17.70;99.90;;;;;;5117252;28;20056;-70
2023/04/28 13:20:42;;;;;;;1.88;1.77;;;17.90;99.90;;;;;;5148995;28;20106;-70
2023/04/28 13:23:16;;;;;;;1.70;1.60;;;17.90;99.90;;;;;;5102145;28;20056;-68
2023/04/28 13:25:50;;;;;;;4.20;1.92;;;17.80;99.90;;;;;;5129044;28;20030;-70
2023/04/28 13:28:23;;;;;;;1.90;1.80;;;17.80;99.90;;;;;;5144869;28;20030;-70
2023/04/28 13:30:54;;;;;;;2.63;2.15;;;17.90;99.90;;;;;;5114393;28;20051;-70
2023/04/28 13:33:30;;;;;;;3.10;2.00;;;17.90;99.90;;;;;;5147224;28;20065;-70
2023/04/28 13:36:09;;;;;;;2.38;2.17;;;18.10;99.90;;;;;;5148844;28;20034;-68
2023/04/28 13:38:42;;;;;;;2.30;2.10;;;17.90;99.90;;;;;;5133820;28;20373;-70